Aviation Digital Data Service (ADDS)

Output produced by METARs form (1611 UTC 26 September 2021)
found at http://www.aviationweather.gov/metar/data/
 
METAR text: ROAH 261600Z 01008KT 9999 FEW016 27/25 Q1010 RMK 1CU016 A2984
Conditions at: ROAH (NAHA (CIV/JASDF), JP) observed 1600 UTC 26 September 2021
Temperature: 27.0°C (81°F)
Dewpoint: 25.0°C (77°F) [RH = 89%]
Pressure (altimeter): 29.82 inches Hg (1010.0 mb)
Winds: from the N (10 degrees) at 9 MPH (8 knots; 4.1 m/s)
Visibility: 6 or more miles (10+ km)
Ceiling: at least 12,000 feet AGL
Clouds: few clouds at 1600 feet AGL
Weather: no significant weather observed at this time

METAR text: ROAH 261530Z 01008KT 9999 FEW016 28/26 Q1010 RMK 2CU016 A2985
Conditions at: ROAH (NAHA (CIV/JASDF), JP) observed 1530 UTC 26 September 2021
Temperature: 28.0°C (82°F)
Dewpoint: 26.0°C (79°F) [RH = 89%]
Pressure (altimeter): 29.82 inches Hg (1010.0 mb)
Winds: from the N (10 degrees) at 9 MPH (8 knots; 4.1 m/s)
Visibility: 6 or more miles (10+ km)
Ceiling: at least 12,000 feet AGL
Clouds: few clouds at 1600 feet AGL
Weather: no significant weather observed at this time

METAR text: ROAH 261500Z 04007KT 9999 FEW018 28/25 Q1011 RMK 2CU018 A2986
Conditions at: ROAH (NAHA (CIV/JASDF), JP) observed 1500 UTC 26 September 2021
Temperature: 28.0°C (82°F)
Dewpoint: 25.0°C (77°F) [RH = 84%]
Pressure (altimeter): 29.85 inches Hg (1011.0 mb)
Winds: from the NE (40 degrees) at 8 MPH (7 knots; 3.6 m/s)
Visibility: 6 or more miles (10+ km)
Ceiling: at least 12,000 feet AGL
Clouds: few clouds at 1800 feet AGL
Weather: no significant weather observed at this time

METAR text: ROAH 261430Z 06010KT 9999 FEW018 29/25 Q1011 RMK 1CU018 A2986
Conditions at: ROAH (NAHA (CIV/JASDF), JP) observed 1430 UTC 26 September 2021
Temperature: 29.0°C (84°F)
Dewpoint: 25.0°C (77°F) [RH = 79%]
Pressure (altimeter): 29.85 inches Hg (1011.0 mb)
Winds: from the ENE (60 degrees) at 12 MPH (10 knots; 5.1 m/s)
Visibility: 6 or more miles (10+ km)
Ceiling: at least 12,000 feet AGL
Clouds: few clouds at 1800 feet AGL
Weather: no significant weather observed at this time

METAR text: ROAH 261400Z 07008KT 9999 FEW018 29/25 Q1011 RMK 1CU018 A2986
Conditions at: ROAH (NAHA (CIV/JASDF), JP) observed 1400 UTC 26 September 2021
Temperature: 29.0°C (84°F)
Dewpoint: 25.0°C (77°F) [RH = 79%]
Pressure (altimeter): 29.85 inches Hg (1011.0 mb)
Winds: from the ENE (70 degrees) at 9 MPH (8 knots; 4.1 m/s)
Visibility: 6 or more miles (10+ km)
Ceiling: at least 12,000 feet AGL
Clouds: few clouds at 1800 feet AGL
Weather: no significant weather observed at this time

METAR text: ROAH 261330Z 06010KT 9999 FEW018 29/25 Q1011 RMK 1CU018 A2987
Conditions at: ROAH (NAHA (CIV/JASDF), JP) observed 1330 UTC 26 September 2021
Temperature: 29.0°C (84°F)
Dewpoint: 25.0°C (77°F) [RH = 79%]
Pressure (altimeter): 29.85 inches Hg (1011.0 mb)
Winds: from the ENE (60 degrees) at 12 MPH (10 knots; 5.1 m/s)
Visibility: 6 or more miles (10+ km)
Ceiling: at least 12,000 feet AGL
Clouds: few clouds at 1800 feet AGL
Weather: no significant weather observed at this time

METAR text: ROAH 261300Z 07008KT 9999 SCT018 29/25 Q1011 RMK 3CU018 A2987
Conditions at: ROAH (NAHA (CIV/JASDF), JP) observed 1300 UTC 26 September 2021
Temperature: 29.0°C (84°F)
Dewpoint: 25.0°C (77°F) [RH = 79%]
Pressure (altimeter): 29.85 inches Hg (1011.0 mb)
Winds: from the ENE (70 degrees) at 9 MPH (8 knots; 4.1 m/s)
Visibility: 6 or more miles (10+ km)
Ceiling: at least 12,000 feet AGL
Clouds: scattered clouds at 1800 feet AGL
Weather: no significant weather observed at this time

METAR text: ROAH 261230Z 07009KT 9999 SCT018 29/25 Q1011 RMK 3CU018 A2987
Conditions at: ROAH (NAHA (CIV/JASDF), JP) observed 1230 UTC 26 September 2021
Temperature: 29.0°C (84°F)
Dewpoint: 25.0°C (77°F) [RH = 79%]
Pressure (altimeter): 29.85 inches Hg (1011.0 mb)
Winds: from the ENE (70 degrees) at 10 MPH (9 knots; 4.6 m/s)
Visibility: 6 or more miles (10+ km)
Ceiling: at least 12,000 feet AGL
Clouds: scattered clouds at 1800 feet AGL
Weather: no significant weather observed at this time

METAR text: ROAH 261200Z 05008KT 030V090 9999 FEW018 29/25 Q1011 RMK 2CU018 A2987
Conditions at: ROAH (NAHA (CIV/JASDF), JP) observed 1200 UTC 26 September 2021
Temperature: 29.0°C (84°F)
Dewpoint: 25.0°C (77°F) [RH = 79%]
Pressure (altimeter): 29.85 inches Hg (1011.0 mb)
Winds: from the NE (50 degrees) at 9 MPH (8 knots; 4.1 m/s)
Visibility: 6 or more miles (10+ km)
Ceiling: at least 12,000 feet AGL
Clouds: few clouds at 1800 feet AGL
Weather: no significant weather observed at this time

METAR text: ROAH 261130Z 06011KT 9999 FEW020 29/25 Q1011 RMK 1CU020 A2986
Conditions at: ROAH (NAHA (CIV/JASDF), JP) observed 1130 UTC 26 September 2021
Temperature: 29.0°C (84°F)
Dewpoint: 25.0°C (77°F) [RH = 79%]
Pressure (altimeter): 29.85 inches Hg (1011.0 mb)
Winds: from the ENE (60 degrees) at 13 MPH (11 knots; 5.7 m/s)
Visibility: 6 or more miles (10+ km)
Ceiling: at least 12,000 feet AGL
Clouds: few clouds at 2000 feet AGL
Weather: no significant weather observed at this time

METAR text: ROAH 261100Z 05011KT 020V090 9999 VCSH FEW020 29/25 Q1011 RMK 1CU020 A2986
Conditions at: ROAH (NAHA (CIV/JASDF), JP) observed 1100 UTC 26 September 2021
Temperature: 29.0°C (84°F)
Dewpoint: 25.0°C (77°F) [RH = 79%]
Pressure (altimeter): 29.85 inches Hg (1011.0 mb)
Winds: from the NE (50 degrees) at 13 MPH (11 knots; 5.7 m/s)
Visibility: 6 or more miles (10+ km)
Ceiling: at least 12,000 feet AGL
Clouds: few clouds at 2000 feet AGL
Weather: VCSH  (showers in vicinity)

METAR text: ROAH 261030Z 04012KT 9999 -SHRA FEW020 SCT025 29/25 Q1011 RMK 2CU020 3CU025 A2986
Conditions at: ROAH (NAHA (CIV/JASDF), JP) observed 1030 UTC 26 September 2021
Temperature: 29.0°C (84°F)
Dewpoint: 25.0°C (77°F) [RH = 79%]
Pressure (altimeter): 29.85 inches Hg (1011.0 mb)
Winds: from the NE (40 degrees) at 14 MPH (12 knots; 6.2 m/s)
Visibility: 6 or more miles (10+ km)
Ceiling: at least 12,000 feet AGL
Clouds: few clouds at 2000 feet AGL
scattered clouds at 2500 feet AGL
Weather: -SHRA  (light rain showers)

METAR text: ROAH 261000Z 01008KT 9999 -SHRA FEW020 SCT025 BKN150 29/25 Q1010 RMK 1CU020 3CU025 5AC150 A2985
Conditions at: ROAH (NAHA (CIV/JASDF), JP) observed 1000 UTC 26 September 2021
Temperature: 29.0°C (84°F)
Dewpoint: 25.0°C (77°F) [RH = 79%]
Pressure (altimeter): 29.82 inches Hg (1010.0 mb)
Winds: from the N (10 degrees) at 9 MPH (8 knots; 4.1 m/s)
Visibility: 6 or more miles (10+ km)
Ceiling: 15000 feet AGL
Clouds: few clouds at 2000 feet AGL
scattered clouds at 2500 feet AGL
broken clouds at 15000 feet AGL
Weather: -SHRA  (light rain showers)

METAR text: ROAH 260930Z 03009KT 9999 VCSH FEW020 SCT150 28/24 Q1011 RMK 2CU020 4AC150 A2985
Conditions at: ROAH (NAHA (CIV/JASDF), JP) observed 0930 UTC 26 September 2021
Temperature: 28.0°C (82°F)
Dewpoint: 24.0°C (75°F) [RH = 79%]
Pressure (altimeter): 29.85 inches Hg (1011.0 mb)
Winds: from the NNE (30 degrees) at 10 MPH (9 knots; 4.6 m/s)
Visibility: 6 or more miles (10+ km)
Ceiling: at least 12,000 feet AGL
Clouds: few clouds at 2000 feet AGL
scattered clouds at 15000 feet AGL
Weather: VCSH  (showers in vicinity)

METAR text: ROAH 260900Z 02013KT 9999 FEW020 FEW025TCU SCT150 28/24 Q1010 RMK 1CU020 1TCU025 3AC150 A2984 TCU W
Conditions at: ROAH (NAHA (CIV/JASDF), JP) observed 0900 UTC 26 September 2021
Temperature: 28.0°C (82°F)
Dewpoint: 24.0°C (75°F) [RH = 79%]
Pressure (altimeter): 29.82 inches Hg (1010.0 mb)
Winds: from the NNE (20 degrees) at 15 MPH (13 knots; 6.7 m/s)
Visibility: 6 or more miles (10+ km)
Ceiling: at least 12,000 feet AGL
Clouds: few clouds at 2000 feet AGL
few clouds at 2500 feet AGL
scattered clouds at 15000 feet AGL
Weather: no significant weather observed at this time

METAR text: ROAH 260830Z 02014KT 9999 VCSH FEW020 FEW025TCU SCT/// 29/25 Q1010
Conditions at: ROAH (NAHA (CIV/JASDF), JP) observed 0830 UTC 26 September 2021
Temperature: 29.0°C (84°F)
Dewpoint: 25.0°C (77°F) [RH = 79%]
Pressure (altimeter): 29.82 inches Hg (1010.0 mb)
Winds: from the NNE (20 degrees) at 16 MPH (14 knots; 7.2 m/s)
Visibility: 6 or more miles (10+ km)
Ceiling: at least 12,000 feet AGL
Clouds: few clouds at 2000 feet AGL
few clouds at 2500 feet AGL
Weather: VCSH  (showers in vicinity)

METAR text: ROAH 260800Z 01013KT 9999 FEW025TCU SCT030 30/25 Q1010 RMK 1TCU025 3CU030 A2983 TCU NE
Conditions at: ROAH (NAHA (CIV/JASDF), JP) observed 0800 UTC 26 September 2021
Temperature: 30.0°C (86°F)
Dewpoint: 25.0°C (77°F) [RH = 75%]
Pressure (altimeter): 29.82 inches Hg (1010.0 mb)
Winds: from the N (10 degrees) at 15 MPH (13 knots; 6.7 m/s)
Visibility: 6 or more miles (10+ km)
Ceiling: at least 12,000 feet AGL
Clouds: few clouds at 2500 feet AGL
scattered clouds at 3000 feet AGL
Weather: no significant weather observed at this time

METAR text: ROAH 260730Z 01013KT 9999 VCSH FEW025TCU SCT030 30/25 Q1010 RMK 1TCU025 4CU030 A2983 TCU 16KM N STNR
Conditions at: ROAH (NAHA (CIV/JASDF), JP) observed 0730 UTC 26 September 2021
Temperature: 30.0°C (86°F)
Dewpoint: 25.0°C (77°F) [RH = 75%]
Pressure (altimeter): 29.82 inches Hg (1010.0 mb)
Winds: from the N (10 degrees) at 15 MPH (13 knots; 6.7 m/s)
Visibility: 6 or more miles (10+ km)
Ceiling: at least 12,000 feet AGL
Clouds: few clouds at 2500 feet AGL
scattered clouds at 3000 feet AGL
Weather: VCSH  (showers in vicinity)

METAR text: ROAH 260700Z 36012KT 9999 FEW025TCU SCT030 31/24 Q1010 RMK 1TCU025 4CU030 A2983 TCU 16KM N STNR
Conditions at: ROAH (NAHA (CIV/JASDF), JP) observed 0700 UTC 26 September 2021
Temperature: 31.0°C (88°F)
Dewpoint: 24.0°C (75°F) [RH = 66%]
Pressure (altimeter): 29.82 inches Hg (1010.0 mb)
Winds: from the N (360 degrees) at 14 MPH (12 knots; 6.2 m/s)
Visibility: 6 or more miles (10+ km)
Ceiling: at least 12,000 feet AGL
Clouds: few clouds at 2500 feet AGL
scattered clouds at 3000 feet AGL
Weather: no significant weather observed at this time

METAR text: ROAH 260644Z 02012KT 9999 VCSH FEW025TCU SCT030 32/26 Q1010 RMK 1TCU025 4CU030 A2983 TCU 16KM N STNR
Conditions at: ROAH (NAHA (CIV/JASDF), JP) observed 0644 UTC 26 September 2021
Temperature: 32.0°C (90°F)
Dewpoint: 26.0°C (79°F) [RH = 71%]
Pressure (altimeter): 29.82 inches Hg (1010.0 mb)
Winds: from the NNE (20 degrees) at 14 MPH (12 knots; 6.2 m/s)
Visibility: 6 or more miles (10+ km)
Ceiling: at least 12,000 feet AGL
Clouds: few clouds at 2500 feet AGL
scattered clouds at 3000 feet AGL
Weather: VCSH  (showers in vicinity)

METAR text: ROAH 260630Z 36013KT 9999 VCSH FEW025TCU SCT030 30/25 Q1010 RMK 1TCU025 4CU030 A2982 TCU 16KM N MOV SW
Conditions at: ROAH (NAHA (CIV/JASDF), JP) observed 0630 UTC 26 September 2021
Temperature: 30.0°C (86°F)
Dewpoint: 25.0°C (77°F) [RH = 75%]
Pressure (altimeter): 29.82 inches Hg (1010.0 mb)
Winds: from the N (360 degrees) at 15 MPH (13 knots; 6.7 m/s)
Visibility: 6 or more miles (10+ km)
Ceiling: at least 12,000 feet AGL
Clouds: few clouds at 2500 feet AGL
scattered clouds at 3000 feet AGL
Weather: VCSH  (showers in vicinity)

METAR text: ROAH 260600Z 36013KT 9999 FEW025TCU SCT030 30/26 Q1009 RMK 1TCU025 3CU030 A2982 TCU 18KM N MOV SW
Conditions at: ROAH (NAHA (CIV/JASDF), JP) observed 0600 UTC 26 September 2021
Temperature: 30.0°C (86°F)
Dewpoint: 26.0°C (79°F) [RH = 79%]
Pressure (altimeter): 29.79 inches Hg (1009.0 mb)
Winds: from the N (360 degrees) at 15 MPH (13 knots; 6.7 m/s)
Visibility: 6 or more miles (10+ km)
Ceiling: at least 12,000 feet AGL
Clouds: few clouds at 2500 feet AGL
scattered clouds at 3000 feet AGL
Weather: no significant weather observed at this time

METAR text: ROAH 260549Z 01010KT 330V050 9999 FEW025TCU SCT030 31/25 Q1010 RMK 1TCU025 3CU030 A2982 TCU 18KM N MOV SW
Conditions at: ROAH (NAHA (CIV/JASDF), JP) observed 0549 UTC 26 September 2021
Temperature: 31.0°C (88°F)
Dewpoint: 25.0°C (77°F) [RH = 71%]
Pressure (altimeter): 29.82 inches Hg (1010.0 mb)
Winds: from the N (10 degrees) at 12 MPH (10 knots; 5.1 m/s)
Visibility: 6 or more miles (10+ km)
Ceiling: at least 12,000 feet AGL
Clouds: few clouds at 2500 feet AGL
scattered clouds at 3000 feet AGL
Weather: no significant weather observed at this time

METAR text: ROAH 260530Z 07007KT 020V130 9999 FEW025TCU SCT030 31/26 Q1010 RMK 1TCU025 3CU030 A2983 TCU 20KM N MOV SW
Conditions at: ROAH (NAHA (CIV/JASDF), JP) observed 0530 UTC 26 September 2021
Temperature: 31.0°C (88°F)
Dewpoint: 26.0°C (79°F) [RH = 75%]
Pressure (altimeter): 29.82 inches Hg (1010.0 mb)
Winds: from the ENE (70 degrees) at 8 MPH (7 knots; 3.6 m/s)
Visibility: 6 or more miles (10+ km)
Ceiling: at least 12,000 feet AGL
Clouds: few clouds at 2500 feet AGL
scattered clouds at 3000 feet AGL
Weather: no significant weather observed at this time

METAR text: ROAH 260500Z 09010KT 040V120 9999 FEW025 SCT030 32/25 Q1010 RMK 1CU025 3CU030 A2984
Conditions at: ROAH (NAHA (CIV/JASDF), JP) observed 0500 UTC 26 September 2021
Temperature: 32.0°C (90°F)
Dewpoint: 25.0°C (77°F) [RH = 67%]
Pressure (altimeter): 29.82 inches Hg (1010.0 mb)
Winds: from the E (90 degrees) at 12 MPH (10 knots; 5.1 m/s)
Visibility: 6 or more miles (10+ km)
Ceiling: at least 12,000 feet AGL
Clouds: few clouds at 2500 feet AGL
scattered clouds at 3000 feet AGL
Weather: no significant weather observed at this time

METAR text: ROAH 260430Z 08008KT 020V110 9999 SCT030 32/24 Q1010 RMK 3CU030 A2985
Conditions at: ROAH (NAHA (CIV/JASDF), JP) observed 0430 UTC 26 September 2021
Temperature: 32.0°C (90°F)
Dewpoint: 24.0°C (75°F) [RH = 63%]
Pressure (altimeter): 29.82 inches Hg (1010.0 mb)
Winds: from the E (80 degrees) at 9 MPH (8 knots; 4.1 m/s)
Visibility: 6 or more miles (10+ km)
Ceiling: at least 12,000 feet AGL
Clouds: scattered clouds at 3000 feet AGL
Weather: no significant weather observed at this time

METAR text: ROAH 260400Z 08009KT 020V110 9999 SCT030 33/24 Q1011 RMK 3CU030 A2986
Conditions at: ROAH (NAHA (CIV/JASDF), JP) observed 0400 UTC 26 September 2021
Temperature: 33.0°C (91°F)
Dewpoint: 24.0°C (75°F) [RH = 59%]
Pressure (altimeter): 29.85 inches Hg (1011.0 mb)
Winds: from the E (80 degrees) at 10 MPH (9 knots; 4.6 m/s)
Visibility: 6 or more miles (10+ km)
Ceiling: at least 12,000 feet AGL
Clouds: scattered clouds at 3000 feet AGL
Weather: no significant weather observed at this time

METAR text: ROAH 260330Z 08009KT 050V120 9999 SCT030 33/25 Q1011 RMK 3CU030 A2987
Conditions at: ROAH (NAHA (CIV/JASDF), JP) observed 0330 UTC 26 September 2021
Temperature: 33.0°C (91°F)
Dewpoint: 25.0°C (77°F) [RH = 63%]
Pressure (altimeter): 29.85 inches Hg (1011.0 mb)
Winds: from the E (80 degrees) at 10 MPH (9 knots; 4.6 m/s)
Visibility: 6 or more miles (10+ km)
Ceiling: at least 12,000 feet AGL
Clouds: scattered clouds at 3000 feet AGL
Weather: no significant weather observed at this time

METAR text: ROAH 260300Z 06009KT 9999 SCT030 32/25 Q1011 RMK 3CU030 A2988
Conditions at: ROAH (NAHA (CIV/JASDF), JP) observed 0300 UTC 26 September 2021
Temperature: 32.0°C (90°F)
Dewpoint: 25.0°C (77°F) [RH = 67%]
Pressure (altimeter): 29.85 inches Hg (1011.0 mb)
Winds: from the ENE (60 degrees) at 10 MPH (9 knots; 4.6 m/s)
Visibility: 6 or more miles (10+ km)
Ceiling: at least 12,000 feet AGL
Clouds: scattered clouds at 3000 feet AGL
Weather: no significant weather observed at this time

METAR text: ROAH 260230Z 07009KT 030V110 9999 FEW027 SCT030 32/26 Q1012 RMK 1CU027 3CU030 A2988
Conditions at: ROAH (NAHA (CIV/JASDF), JP) observed 0230 UTC 26 September 2021
Temperature: 32.0°C (90°F)
Dewpoint: 26.0°C (79°F) [RH = 71%]
Pressure (altimeter): 29.88 inches Hg (1012.0 mb)
Winds: from the ENE (70 degrees) at 10 MPH (9 knots; 4.6 m/s)
Visibility: 6 or more miles (10+ km)
Ceiling: at least 12,000 feet AGL
Clouds: few clouds at 2700 feet AGL
scattered clouds at 3000 feet AGL
Weather: no significant weather observed at this time

METAR text: ROAH 260200Z 08008KT 9999 FEW026 SCT030 32/25 Q1012 RMK 1CU026 3CU030 A2988
Conditions at: ROAH (NAHA (CIV/JASDF), JP) observed 0200 UTC 26 September 2021
Temperature: 32.0°C (90°F)
Dewpoint: 25.0°C (77°F) [RH = 67%]
Pressure (altimeter): 29.88 inches Hg (1012.0 mb)
Winds: from the E (80 degrees) at 9 MPH (8 knots; 4.1 m/s)
Visibility: 6 or more miles (10+ km)
Ceiling: at least 12,000 feet AGL
Clouds: few clouds at 2600 feet AGL
scattered clouds at 3000 feet AGL
Weather: no significant weather observed at this time

METAR text: ROAH 260130Z 09009KT 030V120 9999 SCT023 32/25 Q1012 RMK 3CU023 A2989
Conditions at: ROAH (NAHA (CIV/JASDF), JP) observed 0130 UTC 26 September 2021
Temperature: 32.0°C (90°F)
Dewpoint: 25.0°C (77°F) [RH = 67%]
Pressure (altimeter): 29.88 inches Hg (1012.0 mb)
Winds: from the E (90 degrees) at 10 MPH (9 knots; 4.6 m/s)
Visibility: 6 or more miles (10+ km)
Ceiling: at least 12,000 feet AGL
Clouds: scattered clouds at 2300 feet AGL
Weather: no significant weather observed at this time

METAR text: ROAH 260100Z 09006KT 020V140 9999 SCT023 31/25 Q1012 RMK 3CU023 A2989
Conditions at: ROAH (NAHA (CIV/JASDF), JP) observed 0100 UTC 26 September 2021
Temperature: 31.0°C (88°F)
Dewpoint: 25.0°C (77°F) [RH = 71%]
Pressure (altimeter): 29.88 inches Hg (1012.0 mb)
Winds: from the E (90 degrees) at 7 MPH (6 knots; 3.1 m/s)
Visibility: 6 or more miles (10+ km)
Ceiling: at least 12,000 feet AGL
Clouds: scattered clouds at 2300 feet AGL
Weather: no significant weather observed at this time

METAR text: ROAH 260030Z 08009KT 040V110 9999 SCT020 30/26 Q1012 RMK 3CU020 A2989
Conditions at: ROAH (NAHA (CIV/JASDF), JP) observed 0030 UTC 26 September 2021
Temperature: 30.0°C (86°F)
Dewpoint: 26.0°C (79°F) [RH = 79%]
Pressure (altimeter): 29.88 inches Hg (1012.0 mb)
Winds: from the E (80 degrees) at 10 MPH (9 knots; 4.6 m/s)
Visibility: 6 or more miles (10+ km)
Ceiling: at least 12,000 feet AGL
Clouds: scattered clouds at 2000 feet AGL
Weather: no significant weather observed at this time

METAR text: ROAH 260000Z 05007KT 360V100 9999 SCT020 29/26 Q1012 RMK 4CU020 A2990
Conditions at: ROAH (NAHA (CIV/JASDF), JP) observed 0000 UTC 26 September 2021
Temperature: 29.0°C (84°F)
Dewpoint: 26.0°C (79°F) [RH = 84%]
Pressure (altimeter): 29.88 inches Hg (1012.0 mb)
Winds: from the NE (50 degrees) at 8 MPH (7 knots; 3.6 m/s)
Visibility: 6 or more miles (10+ km)
Ceiling: at least 12,000 feet AGL
Clouds: scattered clouds at 2000 feet AGL
Weather: no significant weather observed at this time

METAR text: ROAH 252330Z 02006KT 360V060 9999 VCSH SCT020 29/26 Q1012 RMK 3CU020 A2990
Conditions at: ROAH (NAHA (CIV/JASDF), JP) observed 2330 UTC 25 September 2021
Temperature: 29.0°C (84°F)
Dewpoint: 26.0°C (79°F) [RH = 84%]
Pressure (altimeter): 29.88 inches Hg (1012.0 mb)
Winds: from the NNE (20 degrees) at 7 MPH (6 knots; 3.1 m/s)
Visibility: 6 or more miles (10+ km)
Ceiling: at least 12,000 feet AGL
Clouds: scattered clouds at 2000 feet AGL
Weather: VCSH  (showers in vicinity)

METAR text: ROAH 252300Z 03007KT 9999 FEW020 29/26 Q1012 RMK 1CU020 A2990
Conditions at: ROAH (NAHA (CIV/JASDF), JP) observed 2300 UTC 25 September 2021
Temperature: 29.0°C (84°F)
Dewpoint: 26.0°C (79°F) [RH = 84%]
Pressure (altimeter): 29.88 inches Hg (1012.0 mb)
Winds: from the NNE (30 degrees) at 8 MPH (7 knots; 3.6 m/s)
Visibility: 6 or more miles (10+ km)
Ceiling: at least 12,000 feet AGL
Clouds: few clouds at 2000 feet AGL
Weather: no significant weather observed at this time

METAR text: ROAH 252230Z 01008KT 9999 FEW018 28/25 Q1012 RMK 1CU018 A2989
Conditions at: ROAH (NAHA (CIV/JASDF), JP) observed 2230 UTC 25 September 2021
Temperature: 28.0°C (82°F)
Dewpoint: 25.0°C (77°F) [RH = 84%]
Pressure (altimeter): 29.88 inches Hg (1012.0 mb)
Winds: from the N (10 degrees) at 9 MPH (8 knots; 4.1 m/s)
Visibility: 6 or more miles (10+ km)
Ceiling: at least 12,000 feet AGL
Clouds: few clouds at 1800 feet AGL
Weather: no significant weather observed at this time

METAR text: ROAH 252200Z 01007KT 9999 FEW015 28/25 Q1012 RMK 1CU015 A2989
Conditions at: ROAH (NAHA (CIV/JASDF), JP) observed 2200 UTC 25 September 2021
Temperature: 28.0°C (82°F)
Dewpoint: 25.0°C (77°F) [RH = 84%]
Pressure (altimeter): 29.88 inches Hg (1012.0 mb)
Winds: from the N (10 degrees) at 8 MPH (7 knots; 3.6 m/s)
Visibility: 6 or more miles (10+ km)
Ceiling: at least 12,000 feet AGL
Clouds: few clouds at 1500 feet AGL
Weather: no significant weather observed at this time

METAR text: ROAH 252130Z 02005KT 9999 FEW015 27/25 Q1011 RMK 1CU015 A2988
Conditions at: ROAH (NAHA (CIV/JASDF), JP) observed 2130 UTC 25 September 2021
Temperature: 27.0°C (81°F)
Dewpoint: 25.0°C (77°F) [RH = 89%]
Pressure (altimeter): 29.85 inches Hg (1011.0 mb)
Winds: from the NNE (20 degrees) at 6 MPH (5 knots; 2.6 m/s)
Visibility: 6 or more miles (10+ km)
Ceiling: at least 12,000 feet AGL
Clouds: few clouds at 1500 feet AGL
Weather: no significant weather observed at this time

METAR text: ROAH 252100Z 01003KT 9999 VCSH FEW015 27/25 Q1011 RMK 1CU015 A2988
Conditions at: ROAH (NAHA (CIV/JASDF), JP) observed 2100 UTC 25 September 2021
Temperature: 27.0°C (81°F)
Dewpoint: 25.0°C (77°F) [RH = 89%]
Pressure (altimeter): 29.85 inches Hg (1011.0 mb)
Winds: from the N (10 degrees) at 3 MPH (3 knots; 1.5 m/s)
Visibility: 6 or more miles (10+ km)
Ceiling: at least 12,000 feet AGL
Clouds: few clouds at 1500 feet AGL
Weather: VCSH  (showers in vicinity)

METAR text: ROAH 252039Z VRB01KT 9999 VCSH SCT015 SCT090 27/25 Q1012 RMK 3CU015 3AC090 A2988
Conditions at: ROAH (NAHA (CIV/JASDF), JP) observed 2039 UTC 25 September 2021
Temperature: 27.0°C (81°F)
Dewpoint: 25.0°C (77°F) [RH = 89%]
Pressure (altimeter): 29.88 inches Hg (1012.0 mb)
Winds: variable direction winds at 1 MPH (1 knots; 0.5 m/s)
Visibility: 6 or more miles (10+ km)
Ceiling: at least 12,000 feet AGL
Clouds: scattered clouds at 1500 feet AGL
scattered clouds at 9000 feet AGL
Weather: VCSH  (showers in vicinity)

METAR text: ROAH 252030Z VRB02KT 9999 SHRA SCT015 FEW020TCU 27/25 Q1012 RMK 4CU015 1TCU020 A2988 TCU 6KM SW MOV W
Conditions at: ROAH (NAHA (CIV/JASDF), JP) observed 2030 UTC 25 September 2021
Temperature: 27.0°C (81°F)
Dewpoint: 25.0°C (77°F) [RH = 89%]
Pressure (altimeter): 29.88 inches Hg (1012.0 mb)
Winds: variable direction winds at 2 MPH (2 knots; 1.0 m/s)
Visibility: 6 or more miles (10+ km)
Ceiling: at least 12,000 feet AGL
Clouds: scattered clouds at 1500 feet AGL
few clouds at 2000 feet AGL
Weather: SHRA  (rain showers)

METAR text: ROAH 252000Z 02007KT 9999 SHRA FEW018 FEW020TCU 27/25 Q1011 RMK 1CU018 1TCU020 A2988 TCU 6KM E-SE MOV W
Conditions at: ROAH (NAHA (CIV/JASDF), JP) observed 2000 UTC 25 September 2021
Temperature: 27.0°C (81°F)
Dewpoint: 25.0°C (77°F) [RH = 89%]
Pressure (altimeter): 29.85 inches Hg (1011.0 mb)
Winds: from the NNE (20 degrees) at 8 MPH (7 knots; 3.6 m/s)
Visibility: 6 or more miles (10+ km)
Ceiling: at least 12,000 feet AGL
Clouds: few clouds at 1800 feet AGL
few clouds at 2000 feet AGL
Weather: SHRA  (rain showers)

METAR text: ROAH 251930Z 02008KT 9999 VCSH FEW018 27/26 Q1011 RMK 1CU018 A2988
Conditions at: ROAH (NAHA (CIV/JASDF), JP) observed 1930 UTC 25 September 2021
Temperature: 27.0°C (81°F)
Dewpoint: 26.0°C (79°F) [RH = 94%]
Pressure (altimeter): 29.85 inches Hg (1011.0 mb)
Winds: from the NNE (20 degrees) at 9 MPH (8 knots; 4.1 m/s)
Visibility: 6 or more miles (10+ km)
Ceiling: at least 12,000 feet AGL
Clouds: few clouds at 1800 feet AGL
Weather: VCSH  (showers in vicinity)

METAR text: ROAH 251900Z 01005KT 9999 SCT018 27/26 Q1012 RMK 4CU018 A2989
Conditions at: ROAH (NAHA (CIV/JASDF), JP) observed 1900 UTC 25 September 2021
Temperature: 27.0°C (81°F)
Dewpoint: 26.0°C (79°F) [RH = 94%]
Pressure (altimeter): 29.88 inches Hg (1012.0 mb)
Winds: from the N (10 degrees) at 6 MPH (5 knots; 2.6 m/s)
Visibility: 6 or more miles (10+ km)
Ceiling: at least 12,000 feet AGL
Clouds: scattered clouds at 1800 feet AGL
Weather: no significant weather observed at this time

METAR text: ROAH 251830Z 02005KT 9999 VCSH FEW017 27/26 Q1012 RMK 1CU017 A2989
Conditions at: ROAH (NAHA (CIV/JASDF), JP) observed 1830 UTC 25 September 2021
Temperature: 27.0°C (81°F)
Dewpoint: 26.0°C (79°F) [RH = 94%]
Pressure (altimeter): 29.88 inches Hg (1012.0 mb)
Winds: from the NNE (20 degrees) at 6 MPH (5 knots; 2.6 m/s)
Visibility: 6 or more miles (10+ km)
Ceiling: at least 12,000 feet AGL
Clouds: few clouds at 1700 feet AGL
Weather: VCSH  (showers in vicinity)

METAR text: ROAH 251800Z 04004KT 9999 FEW017 28/25 Q1012 RMK 2CU017 A2990
Conditions at: ROAH (NAHA (CIV/JASDF), JP) observed 1800 UTC 25 September 2021
Temperature: 28.0°C (82°F)
Dewpoint: 25.0°C (77°F) [RH = 84%]
Pressure (altimeter): 29.88 inches Hg (1012.0 mb)
Winds: from the NE (40 degrees) at 5 MPH (4 knots; 2.1 m/s)
Visibility: 6 or more miles (10+ km)
Ceiling: at least 12,000 feet AGL
Clouds: few clouds at 1700 feet AGL
Weather: no significant weather observed at this time

METAR text: ROAH 251730Z 07004KT 9999 FEW017 28/25 Q1012 RMK 1CU017 A2990
Conditions at: ROAH (NAHA (CIV/JASDF), JP) observed 1730 UTC 25 September 2021
Temperature: 28.0°C (82°F)
Dewpoint: 25.0°C (77°F) [RH = 84%]
Pressure (altimeter): 29.88 inches Hg (1012.0 mb)
Winds: from the ENE (70 degrees) at 5 MPH (4 knots; 2.1 m/s)
Visibility: 6 or more miles (10+ km)
Ceiling: at least 12,000 feet AGL
Clouds: few clouds at 1700 feet AGL
Weather: no significant weather observed at this time

METAR text: ROAH 251700Z 08004KT 9999 FEW017 28/25 Q1012 RMK 1CU017 A2990
Conditions at: ROAH (NAHA (CIV/JASDF), JP) observed 1700 UTC 25 September 2021
Temperature: 28.0°C (82°F)
Dewpoint: 25.0°C (77°F) [RH = 84%]
Pressure (altimeter): 29.88 inches Hg (1012.0 mb)
Winds: from the E (80 degrees) at 5 MPH (4 knots; 2.1 m/s)
Visibility: 6 or more miles (10+ km)
Ceiling: at least 12,000 feet AGL
Clouds: few clouds at 1700 feet AGL
Weather: no significant weather observed at this time

METAR text: ROAH 251630Z 10005KT 9999 FEW017 28/25 Q1012 RMK 1CU017 A2990
Conditions at: ROAH (NAHA (CIV/JASDF), JP) observed 1630 UTC 25 September 2021
Temperature: 28.0°C (82°F)
Dewpoint: 25.0°C (77°F) [RH = 84%]
Pressure (altimeter): 29.88 inches Hg (1012.0 mb)
Winds: from the E (100 degrees) at 6 MPH (5 knots; 2.6 m/s)
Visibility: 6 or more miles (10+ km)
Ceiling: at least 12,000 feet AGL
Clouds: few clouds at 1700 feet AGL
Weather: no significant weather observed at this time

METAR text: ROAH 251600Z 09005KT 9999 FEW017 28/25 Q1012 RMK 1CU017 A2991
Conditions at: ROAH (NAHA (CIV/JASDF), JP) observed 1600 UTC 25 September 2021
Temperature: 28.0°C (82°F)
Dewpoint: 25.0°C (77°F) [RH = 84%]
Pressure (altimeter): 29.88 inches Hg (1012.0 mb)
Winds: from the E (90 degrees) at 6 MPH (5 knots; 2.6 m/s)
Visibility: 6 or more miles (10+ km)
Ceiling: at least 12,000 feet AGL
Clouds: few clouds at 1700 feet AGL
Weather: no significant weather observed at this time

METAR text: ROAH 251530Z 09006KT 9999 VCSH FEW017 28/25 Q1013 RMK 1CU017 A2992
Conditions at: ROAH (NAHA (CIV/JASDF), JP) observed 1530 UTC 25 September 2021
Temperature: 28.0°C (82°F)
Dewpoint: 25.0°C (77°F) [RH = 84%]
Pressure (altimeter): 29.91 inches Hg (1013.0 mb)
Winds: from the E (90 degrees) at 7 MPH (6 knots; 3.1 m/s)
Visibility: 6 or more miles (10+ km)
Ceiling: at least 12,000 feet AGL
Clouds: few clouds at 1700 feet AGL
Weather: VCSH  (showers in vicinity)

METAR text: ROAH 251500Z 09009KT 9999 -SHRA FEW017 29/25 Q1013 RMK 2CU017 A2992
Conditions at: ROAH (NAHA (CIV/JASDF), JP) observed 1500 UTC 25 September 2021
Temperature: 29.0°C (84°F)
Dewpoint: 25.0°C (77°F) [RH = 79%]
Pressure (altimeter): 29.91 inches Hg (1013.0 mb)
Winds: from the E (90 degrees) at 10 MPH (9 knots; 4.6 m/s)
Visibility: 6 or more miles (10+ km)
Ceiling: at least 12,000 feet AGL
Clouds: few clouds at 1700 feet AGL
Weather: -SHRA  (light rain showers)

METAR text: ROAH 251430Z 07009KT 9999 FEW017 29/25 Q1013 RMK 2CU017 A2992
Conditions at: ROAH (NAHA (CIV/JASDF), JP) observed 1430 UTC 25 September 2021
Temperature: 29.0°C (84°F)
Dewpoint: 25.0°C (77°F) [RH = 79%]
Pressure (altimeter): 29.91 inches Hg (1013.0 mb)
Winds: from the ENE (70 degrees) at 10 MPH (9 knots; 4.6 m/s)
Visibility: 6 or more miles (10+ km)
Ceiling: at least 12,000 feet AGL
Clouds: few clouds at 1700 feet AGL
Weather: no significant weather observed at this time

METAR text: ROAH 251400Z 06008KT 9999 FEW017 29/25 Q1013 RMK 2CU017 A2993
Conditions at: ROAH (NAHA (CIV/JASDF), JP) observed 1400 UTC 25 September 2021
Temperature: 29.0°C (84°F)
Dewpoint: 25.0°C (77°F) [RH = 79%]
Pressure (altimeter): 29.91 inches Hg (1013.0 mb)
Winds: from the ENE (60 degrees) at 9 MPH (8 knots; 4.1 m/s)
Visibility: 6 or more miles (10+ km)
Ceiling: at least 12,000 feet AGL
Clouds: few clouds at 1700 feet AGL
Weather: no significant weather observed at this time

METAR text: ROAH 251330Z 06007KT 9999 FEW017 29/25 Q1013 RMK 2CU017 A2994
Conditions at: ROAH (NAHA (CIV/JASDF), JP) observed 1330 UTC 25 September 2021
Temperature: 29.0°C (84°F)
Dewpoint: 25.0°C (77°F) [RH = 79%]
Pressure (altimeter): 29.91 inches Hg (1013.0 mb)
Winds: from the ENE (60 degrees) at 8 MPH (7 knots; 3.6 m/s)
Visibility: 6 or more miles (10+ km)
Ceiling: at least 12,000 feet AGL
Clouds: few clouds at 1700 feet AGL
Weather: no significant weather observed at this time

METAR text: ROAH 251300Z 05008KT 030V090 9999 VCSH FEW017 29/25 Q1013 RMK 2CU017 A2994
Conditions at: ROAH (NAHA (CIV/JASDF), JP) observed 1300 UTC 25 September 2021
Temperature: 29.0°C (84°F)
Dewpoint: 25.0°C (77°F) [RH = 79%]
Pressure (altimeter): 29.91 inches Hg (1013.0 mb)
Winds: from the NE (50 degrees) at 9 MPH (8 knots; 4.1 m/s)
Visibility: 6 or more miles (10+ km)
Ceiling: at least 12,000 feet AGL
Clouds: few clouds at 1700 feet AGL
Weather: VCSH  (showers in vicinity)

METAR text: ROAH 251230Z 07007KT 9999 FEW017 29/25 Q1013 RMK 2CU017 A2994
Conditions at: ROAH (NAHA (CIV/JASDF), JP) observed 1230 UTC 25 September 2021
Temperature: 29.0°C (84°F)
Dewpoint: 25.0°C (77°F) [RH = 79%]
Pressure (altimeter): 29.91 inches Hg (1013.0 mb)
Winds: from the ENE (70 degrees) at 8 MPH (7 knots; 3.6 m/s)
Visibility: 6 or more miles (10+ km)
Ceiling: at least 12,000 feet AGL
Clouds: few clouds at 1700 feet AGL
Weather: no significant weather observed at this time

METAR text: ROAH 251200Z 07009KT 9999 FEW017 29/25 Q1013 RMK 2CU017 A2993
Conditions at: ROAH (NAHA (CIV/JASDF), JP) observed 1200 UTC 25 September 2021
Temperature: 29.0°C (84°F)
Dewpoint: 25.0°C (77°F) [RH = 79%]
Pressure (altimeter): 29.91 inches Hg (1013.0 mb)
Winds: from the ENE (70 degrees) at 10 MPH (9 knots; 4.6 m/s)
Visibility: 6 or more miles (10+ km)
Ceiling: at least 12,000 feet AGL
Clouds: few clouds at 1700 feet AGL
Weather: no significant weather observed at this time

METAR text: ROAH 251130Z 07006KT 010V110 9999 FEW017 28/25 Q1013 RMK 2CU017 A2992
Conditions at: ROAH (NAHA (CIV/JASDF), JP) observed 1130 UTC 25 September 2021
Temperature: 28.0°C (82°F)
Dewpoint: 25.0°C (77°F) [RH = 84%]
Pressure (altimeter): 29.91 inches Hg (1013.0 mb)
Winds: from the ENE (70 degrees) at 7 MPH (6 knots; 3.1 m/s)
Visibility: 6 or more miles (10+ km)
Ceiling: at least 12,000 feet AGL
Clouds: few clouds at 1700 feet AGL
Weather: no significant weather observed at this time

METAR text: ROAH 251100Z 06007KT 020V100 9999 FEW018 28/25 Q1013 RMK 1CU018 A2992
Conditions at: ROAH (NAHA (CIV/JASDF), JP) observed 1100 UTC 25 September 2021
Temperature: 28.0°C (82°F)
Dewpoint: 25.0°C (77°F) [RH = 84%]
Pressure (altimeter): 29.91 inches Hg (1013.0 mb)
Winds: from the ENE (60 degrees) at 8 MPH (7 knots; 3.6 m/s)
Visibility: 6 or more miles (10+ km)
Ceiling: at least 12,000 feet AGL
Clouds: few clouds at 1800 feet AGL
Weather: no significant weather observed at this time

METAR text: ROAH 251030Z 03007KT 9999 FEW018 SCT170 28/25 Q1013 RMK 1CU018 3AC170 A2992
Conditions at: ROAH (NAHA (CIV/JASDF), JP) observed 1030 UTC 25 September 2021
Temperature: 28.0°C (82°F)
Dewpoint: 25.0°C (77°F) [RH = 84%]
Pressure (altimeter): 29.91 inches Hg (1013.0 mb)
Winds: from the NNE (30 degrees) at 8 MPH (7 knots; 3.6 m/s)
Visibility: 6 or more miles (10+ km)
Ceiling: at least 12,000 feet AGL
Clouds: few clouds at 1800 feet AGL
scattered clouds at 17000 feet AGL
Weather: no significant weather observed at this time

METAR text: ROAH 251000Z 02009KT 9999 -SHRA SCT018 SCT070 28/25 Q1013 RMK 4CU018 3AC070 A2992
Conditions at: ROAH (NAHA (CIV/JASDF), JP) observed 1000 UTC 25 September 2021
Temperature: 28.0°C (82°F)
Dewpoint: 25.0°C (77°F) [RH = 84%]
Pressure (altimeter): 29.91 inches Hg (1013.0 mb)
Winds: from the NNE (20 degrees) at 10 MPH (9 knots; 4.6 m/s)
Visibility: 6 or more miles (10+ km)
Ceiling: at least 12,000 feet AGL
Clouds: scattered clouds at 1800 feet AGL
scattered clouds at 7000 feet AGL
Weather: -SHRA  (light rain showers)

METAR text: ROAH 250930Z 02010KT 9999 -SHRA SCT025 SCT/// 28/25 Q1013 RMK 3CU025 A2991
Conditions at: ROAH (NAHA (CIV/JASDF), JP) observed 0930 UTC 25 September 2021
Temperature: 28.0°C (82°F)
Dewpoint: 25.0°C (77°F) [RH = 84%]
Pressure (altimeter): 29.91 inches Hg (1013.0 mb)
Winds: from the NNE (20 degrees) at 12 MPH (10 knots; 5.1 m/s)
Visibility: 6 or more miles (10+ km)
Ceiling: at least 12,000 feet AGL
Clouds: scattered clouds at 2500 feet AGL
Weather: -SHRA  (light rain showers)

METAR text: ROAH 250921Z 02011KT 9999 -SHRA SCT025 SCT/// 28/25 Q1012 RMK 3CU025 A2991
Conditions at: ROAH (NAHA (CIV/JASDF), JP) observed 0921 UTC 25 September 2021
Temperature: 28.0°C (82°F)
Dewpoint: 25.0°C (77°F) [RH = 84%]
Pressure (altimeter): 29.88 inches Hg (1012.0 mb)
Winds: from the NNE (20 degrees) at 13 MPH (11 knots; 5.7 m/s)
Visibility: 6 or more miles (10+ km)
Ceiling: at least 12,000 feet AGL
Clouds: scattered clouds at 2500 feet AGL
Weather: -SHRA  (light rain showers)

METAR text: ROAH 250900Z 02012KT 9999 SHRA SCT025 BKN/// 29/25 Q1013
Conditions at: ROAH (NAHA (CIV/JASDF), JP) observed 0900 UTC 25 September 2021
Temperature: 29.0°C (84°F)
Dewpoint: 25.0°C (77°F) [RH = 79%]
Pressure (altimeter): 29.91 inches Hg (1013.0 mb)
Winds: from the NNE (20 degrees) at 14 MPH (12 knots; 6.2 m/s)
Visibility: 6 or more miles (10+ km)
Ceiling: at least 12,000 feet AGL
Clouds: scattered clouds at 2500 feet AGL
Weather: SHRA  (rain showers)

METAR text: ROAH 250830Z 07011KT 9999 +SHRA FEW020TCU BKN025 29/25 Q1012 RMK 1TCU020 6CU025 A2991 TCU 6KM N AND 10KM W MOV SW
Conditions at: ROAH (NAHA (CIV/JASDF), JP) observed 0830 UTC 25 September 2021
Temperature: 29.0°C (84°F)
Dewpoint: 25.0°C (77°F) [RH = 79%]
Pressure (altimeter): 29.88 inches Hg (1012.0 mb)
Winds: from the ENE (70 degrees) at 13 MPH (11 knots; 5.7 m/s)
Visibility: 6 or more miles (10+ km)
Ceiling: 2500 feet AGL
Clouds: few clouds at 2000 feet AGL
broken clouds at 2500 feet AGL
Weather: +SHRA  (heavy rain showers)

METAR text: ROAH 250825Z 07010KT 9999 +SHRA FEW020TCU BKN025 30/25 Q1012 RMK 1TCU020 6CU025 A2991 TCU 8KM NE AND 10KM W MOV SW
Conditions at: ROAH (NAHA (CIV/JASDF), JP) observed 0825 UTC 25 September 2021
Temperature: 30.0°C (86°F)
Dewpoint: 25.0°C (77°F) [RH = 75%]
Pressure (altimeter): 29.88 inches Hg (1012.0 mb)
Winds: from the ENE (70 degrees) at 12 MPH (10 knots; 5.1 m/s)
Visibility: 6 or more miles (10+ km)
Ceiling: 2500 feet AGL
Clouds: few clouds at 2000 feet AGL
broken clouds at 2500 feet AGL
Weather: +SHRA  (heavy rain showers)

METAR text: ROAH 250814Z 36010KT 9999 SHRA FEW020TCU BKN025 29/26 Q1012 RMK 1TCU020 6CU025 A2991 TCU 10KM NE MOV SW
Conditions at: ROAH (NAHA (CIV/JASDF), JP) observed 0814 UTC 25 September 2021
Temperature: 29.0°C (84°F)
Dewpoint: 26.0°C (79°F) [RH = 84%]
Pressure (altimeter): 29.88 inches Hg (1012.0 mb)
Winds: from the N (360 degrees) at 12 MPH (10 knots; 5.1 m/s)
Visibility: 6 or more miles (10+ km)
Ceiling: 2500 feet AGL
Clouds: few clouds at 2000 feet AGL
broken clouds at 2500 feet AGL
Weather: SHRA  (rain showers)

METAR text: ROAH 250800Z 08009KT 060V120 9999 SHRA FEW020TCU BKN025 30/25 Q1012 RMK 1TCU020 5CU025 A2991 TCU NE
Conditions at: ROAH (NAHA (CIV/JASDF), JP) observed 0800 UTC 25 September 2021
Temperature: 30.0°C (86°F)
Dewpoint: 25.0°C (77°F) [RH = 75%]
Pressure (altimeter): 29.88 inches Hg (1012.0 mb)
Winds: from the E (80 degrees) at 10 MPH (9 knots; 4.6 m/s)
Visibility: 6 or more miles (10+ km)
Ceiling: 2500 feet AGL
Clouds: few clouds at 2000 feet AGL
broken clouds at 2500 feet AGL
Weather: SHRA  (rain showers)

METAR text: ROAH 250743Z 08010KT 9999 +SHRA FEW020 BKN025 30/24 Q1012 RMK 1CU020 5CU025 A2990
Conditions at: ROAH (NAHA (CIV/JASDF), JP) observed 0743 UTC 25 September 2021
Temperature: 30.0°C (86°F)
Dewpoint: 24.0°C (75°F) [RH = 70%]
Pressure (altimeter): 29.88 inches Hg (1012.0 mb)
Winds: from the E (80 degrees) at 12 MPH (10 knots; 5.1 m/s)
Visibility: 6 or more miles (10+ km)
Ceiling: 2500 feet AGL
Clouds: few clouds at 2000 feet AGL
broken clouds at 2500 feet AGL
Weather: +SHRA  (heavy rain showers)

METAR text: ROAH 250730Z 08010KT 9999 -SHRA FEW020 SCT025 30/25 Q1012 RMK 1CU020 4CU025 A2990
Conditions at: ROAH (NAHA (CIV/JASDF), JP) observed 0730 UTC 25 September 2021
Temperature: 30.0°C (86°F)
Dewpoint: 25.0°C (77°F) [RH = 75%]
Pressure (altimeter): 29.88 inches Hg (1012.0 mb)
Winds: from the E (80 degrees) at 12 MPH (10 knots; 5.1 m/s)
Visibility: 6 or more miles (10+ km)
Ceiling: at least 12,000 feet AGL
Clouds: few clouds at 2000 feet AGL
scattered clouds at 2500 feet AGL
Weather: -SHRA  (light rain showers)

METAR text: ROAH 250700Z 07010KT 030V100 9999 -SHRA FEW015 BKN025 29/25 Q1012 RMK 1CU015 5CU025 A2990
Conditions at: ROAH (NAHA (CIV/JASDF), JP) observed 0700 UTC 25 September 2021
Temperature: 29.0°C (84°F)
Dewpoint: 25.0°C (77°F) [RH = 79%]
Pressure (altimeter): 29.88 inches Hg (1012.0 mb)
Winds: from the ENE (70 degrees) at 12 MPH (10 knots; 5.1 m/s)
Visibility: 6 or more miles (10+ km)
Ceiling: 2500 feet AGL
Clouds: few clouds at 1500 feet AGL
broken clouds at 2500 feet AGL
Weather: -SHRA  (light rain showers)

METAR text: ROAH 250630Z 02011KT 9999 -SHRA FEW015 BKN025 29/26 Q1012 RMK 1CU015 5CU025 A2990
Conditions at: ROAH (NAHA (CIV/JASDF), JP) observed 0630 UTC 25 September 2021
Temperature: 29.0°C (84°F)
Dewpoint: 26.0°C (79°F) [RH = 84%]
Pressure (altimeter): 29.88 inches Hg (1012.0 mb)
Winds: from the NNE (20 degrees) at 13 MPH (11 knots; 5.7 m/s)
Visibility: 6 or more miles (10+ km)
Ceiling: 2500 feet AGL
Clouds: few clouds at 1500 feet AGL
broken clouds at 2500 feet AGL
Weather: -SHRA  (light rain showers)

METAR text: ROAH 250600Z 36013KT 9999 VCSH FEW023 BKN030 31/26 Q1012 RMK 2CU023 5CU030 A2990
Conditions at: ROAH (NAHA (CIV/JASDF), JP) observed 0600 UTC 25 September 2021
Temperature: 31.0°C (88°F)
Dewpoint: 26.0°C (79°F) [RH = 75%]
Pressure (altimeter): 29.88 inches Hg (1012.0 mb)
Winds: from the N (360 degrees) at 15 MPH (13 knots; 6.7 m/s)
Visibility: 6 or more miles (10+ km)
Ceiling: 3000 feet AGL
Clouds: few clouds at 2300 feet AGL
broken clouds at 3000 feet AGL
Weather: VCSH  (showers in vicinity)

METAR text: ROAH 250530Z 03007KT 350V090 9999 -SHRA SCT025 SCT030 30/25 Q1012 RMK 3CU025 4CU030 A2991
Conditions at: ROAH (NAHA (CIV/JASDF), JP) observed 0530 UTC 25 September 2021
Temperature: 30.0°C (86°F)
Dewpoint: 25.0°C (77°F) [RH = 75%]
Pressure (altimeter): 29.88 inches Hg (1012.0 mb)
Winds: from the NNE (30 degrees) at 8 MPH (7 knots; 3.6 m/s)
Visibility: 6 or more miles (10+ km)
Ceiling: at least 12,000 feet AGL
Clouds: scattered clouds at 2500 feet AGL
scattered clouds at 3000 feet AGL
Weather: -SHRA  (light rain showers)

METAR text: ROAH 250500Z 09011KT 050V120 9999 -SHRA FEW025 SCT030 32/25 Q1012 RMK 2CU025 4CU030 A2991
Conditions at: ROAH (NAHA (CIV/JASDF), JP) observed 0500 UTC 25 September 2021
Temperature: 32.0°C (90°F)
Dewpoint: 25.0°C (77°F) [RH = 67%]
Pressure (altimeter): 29.88 inches Hg (1012.0 mb)
Winds: from the E (90 degrees) at 13 MPH (11 knots; 5.7 m/s)
Visibility: 6 or more miles (10+ km)
Ceiling: at least 12,000 feet AGL
Clouds: few clouds at 2500 feet AGL
scattered clouds at 3000 feet AGL
Weather: -SHRA  (light rain showers)

METAR text: ROAH 250441Z 07005KT 9999 -SHRA FEW020 SCT030 32/25 Q1013 RMK 2CU020 4CU030 A2991
Conditions at: ROAH (NAHA (CIV/JASDF), JP) observed 0441 UTC 25 September 2021
Temperature: 32.0°C (90°F)
Dewpoint: 25.0°C (77°F) [RH = 67%]
Pressure (altimeter): 29.91 inches Hg (1013.0 mb)
Winds: from the ENE (70 degrees) at 6 MPH (5 knots; 2.6 m/s)
Visibility: 6 or more miles (10+ km)
Ceiling: at least 12,000 feet AGL
Clouds: few clouds at 2000 feet AGL
scattered clouds at 3000 feet AGL
Weather: -SHRA  (light rain showers)

METAR text: ROAH 250430Z 02008KT 340V070 9999 -SHRA FEW020 BKN025 29/25 Q1013 RMK 2CU020 5CU025 A2992
Conditions at: ROAH (NAHA (CIV/JASDF), JP) observed 0430 UTC 25 September 2021
Temperature: 29.0°C (84°F)
Dewpoint: 25.0°C (77°F) [RH = 79%]
Pressure (altimeter): 29.91 inches Hg (1013.0 mb)
Winds: from the NNE (20 degrees) at 9 MPH (8 knots; 4.1 m/s)
Visibility: 6 or more miles (10+ km)
Ceiling: 2500 feet AGL
Clouds: few clouds at 2000 feet AGL
broken clouds at 2500 feet AGL
Weather: -SHRA  (light rain showers)

Forecast for: ROAH (NAHA (CIV/JASDF), JP)
Text: TAF ROAH 261105Z 2612/2718 05011KT 9999 FEW015 SCT025
Forecast period: 1200 UTC 26 September 2021 to 1800 UTC 27 September 2021
Forecast type: FROM: standard forecast or significant change
Winds: from the NE (50 degrees) at 13 MPH (11 knots; 5.7 m/s)
Visibility: 6 or more miles (10+ km)
Ceiling: at least 12,000 feet AGL
Clouds: few clouds at 1500 feet AGL
scattered clouds at 2500 feet AGL
Weather: no significant weather forecast for this period
Text: TEMPO 2703/2709 4000 SHRA FEW010 BKN020 FEW025CB
Forecast period: 0300 to 0900 UTC 27 September 2021
Forecast type: TEMPORARY: The following changes expected for less than half the time period
Visibility: 2.49 miles (4.01 km)
Ceiling: 2000 feet AGL
Clouds: few clouds at 1000 feet AGL
broken clouds at 2000 feet AGL
few clouds at 2500 feet AGL
Weather: SHRA  (rain showers)